Leon Junction, Texas
Current Conditions -  °F | °C
As of 6:35 PM on Monday 24 Nov 2014 (Local Time) from KGOP Reporting Station
Clear Clear  
Wind Chill: 48°   Ceiling: Unl
Heat Index: 48°   Visibility: 10mi
Dew Point: 30°   Wind: 0mph
Humidity: 50%   Direction: NA
Pressure: 30.12"   Gusts: NA
Location:  31.34°N, 97.59°W
Report Text: KGOP 250035Z AUTO 00000KT 10SM CLR 09/M01 A3012 RMK AO2 PWINO
Loading
Personal Weather Stations






























Interactive Weather Map New forecast layout! Learn more

10-Day Weather Forecast

Advertisements
Track Severe Weather on mobile